Time;durP1;ratioP1;P1;durP2;ratioP2;P2;SDS_P1;SDS_P2;PMS_P1;PMS_P2;Temp;Humidity;BMP_temperature;BMP_pressure;BME280_temperature;BME280_humidity;BME280_pressure;Samples;Min_cycle;Max_cycle;Signal;HPM_P1;HPM_P2
2021/04/05 00:00:07;;;;;;;1.53;1.30;;;4.80;98.20;;;;;;5028196;28;20463;-76
2021/04/05 00:02:33;;;;;;;1.60;1.50;;;4.80;98.20;;;;;;5034020;28;20482;-76
2021/04/05 00:05:00;;;;;;;1.57;1.30;;;4.80;98.20;;;;;;5030475;28;20529;-76
2021/04/05 00:07:26;;;;;;;1.60;1.40;;;4.80;98.20;;;;;;5030885;28;20484;-75
2021/04/05 00:09:53;;;;;;;1.60;1.40;;;4.80;98.20;;;;;;5027172;28;20487;-76
2021/04/05 00:12:20;;;;;;;1.50;1.30;;;4.90;98.20;;;;;;5030565;28;20586;-75
2021/04/05 00:14:46;;;;;;;1.50;1.30;;;4.80;98.20;;;;;;5029602;28;20477;-75
2021/04/05 00:17:12;;;;;;;1.50;1.30;;;4.90;98.20;;;;;;5030899;28;21217;-75
2021/04/05 00:19:40;;;;;;;1.60;1.30;;;4.90;98.20;;;;;;5033035;28;20478;-76
2021/04/05 00:22:07;;;;;;;1.50;1.30;;;4.90;98.20;;;;;;5028331;28;20577;-75
2021/04/05 00:24:33;;;;;;;1.53;1.30;;;4.90;98.20;;;;;;5030126;28;20463;-77
2021/04/05 00:27:01;;;;;;;1.60;1.40;;;4.90;98.20;;;;;;5026397;28;20969;-75
2021/04/05 00:29:27;;;;;;;1.53;1.30;;;4.90;98.20;;;;;;5033725;28;20491;-75
2021/04/05 00:31:53;;;;;;;1.60;1.30;;;4.90;98.20;;;;;;5027384;28;20481;-74
2021/04/05 00:34:20;;;;;;;1.57;1.30;;;4.90;98.20;;;;;;5030976;28;20463;-77
2021/04/05 00:36:46;;;;;;;1.53;1.40;;;4.90;98.20;;;;;;5030271;28;20524;-75
2021/04/05 00:39:13;;;;;;;1.60;1.43;;;4.90;98.20;;;;;;5038971;28;20491;-75
2021/04/05 00:41:40;;;;;;;1.50;1.30;;;5.00;98.20;;;;;;5024112;28;20843;-75
2021/04/05 00:44:08;;;;;;;1.57;1.30;;;5.00;98.20;;;;;;5038377;28;20463;-75
2021/04/05 00:46:34;;;;;;;1.53;1.30;;;5.10;98.20;;;;;;5027564;28;20479;-76
2021/04/05 00:49:01;;;;;;;1.60;1.40;;;5.10;98.20;;;;;;5038195;28;20566;-75
2021/04/05 00:51:28;;;;;;;3.80;3.50;;;5.10;98.20;;;;;;5022389;28;20479;-75
2021/04/05 00:53:56;;;;;;;1.80;1.70;;;5.20;98.20;;;;;;5041366;28;20469;-78
2021/04/05 00:56:24;;;;;;;1.60;1.37;;;5.20;98.20;;;;;;5026760;28;20493;-75
2021/04/05 00:58:52;;;;;;;1.53;1.30;;;5.30;98.20;;;;;;5037644;28;20487;-76
2021/04/05 01:01:24;;;;;;;1.50;1.33;;;5.30;98.20;;;;;;5024967;28;20473;-76
2021/04/05 01:03:52;;;;;;;1.57;1.40;;;5.30;98.20;;;;;;5041668;28;20459;-76
2021/04/05 01:06:21;;;;;;;1.50;1.30;;;5.40;98.20;;;;;;5025287;28;20484;-76
2021/04/05 01:08:47;;;;;;;1.97;1.87;;;5.40;98.20;;;;;;5036474;28;20518;-76
2021/04/05 01:11:15;;;;;;;1.50;1.30;;;5.40;98.20;;;;;;5028081;28;21024;-76
2021/04/05 01:13:42;;;;;;;1.50;1.30;;;5.50;98.20;;;;;;5042808;28;20471;-76
2021/04/05 01:16:09;;;;;;;1.50;1.30;;;5.50;98.20;;;;;;5026366;28;20482;-76
2021/04/05 01:18:39;;;;;;;1.50;1.30;;;5.50;98.20;;;;;;5037166;28;20498;-77
2021/04/05 01:21:06;;;;;;;1.60;1.40;;;5.60;98.20;;;;;;5021032;28;20844;-76
2021/04/05 01:23:34;;;;;;;1.50;1.30;;;5.60;98.20;;;;;;5043917;28;20467;-76
2021/04/05 01:26:00;;;;;;;1.60;1.30;;;5.60;98.20;;;;;;5020087;28;20503;-76
2021/04/05 01:28:27;;;;;;;1.53;1.40;;;5.60;98.20;;;;;;5025850;28;20506;-76
2021/04/05 01:30:56;;;;;;;1.50;1.27;;;5.60;98.20;;;;;;5018099;28;20456;-76
2021/04/05 01:33:26;;;;;;;1.57;1.30;;;5.60;98.20;;;;;;5040990;28;20459;-76
2021/04/05 01:35:54;;;;;;;1.53;1.30;;;5.70;98.20;;;;;;5021200;28;20892;-75
2021/04/05 01:38:25;;;;;;;1.50;1.30;;;5.70;98.20;;;;;;5043572;28;20955;-76
2021/04/05 01:40:54;;;;;;;1.60;1.40;;;5.70;98.20;;;;;;5014160;28;20468;-75
2021/04/05 01:43:21;;;;;;;1.53;1.30;;;5.70;98.20;;;;;;5042170;28;20516;-76
2021/04/05 01:45:47;;;;;;;1.57;1.40;;;5.80;98.20;;;;;;5021509;28;20512;-77
2021/04/05 01:48:14;;;;;;;1.53;1.40;;;5.80;98.20;;;;;;5044413;28;20487;-76
2021/04/05 01:50:41;;;;;;;1.50;1.30;;;5.80;98.20;;;;;;5027152;28;20496;-77
2021/04/05 01:53:09;;;;;;;1.60;1.40;;;5.80;98.20;;;;;;5029532;28;20482;-76
2021/04/05 01:55:36;;;;;;;1.57;1.30;;;5.80;98.20;;;;;;5028569;28;20466;-76
2021/04/05 01:58:05;;;;;;;1.57;1.30;;;5.80;98.20;;;;;;5034763;28;20478;-76
2021/04/05 02:00:35;;;;;;;1.53;1.30;;;5.80;98.20;;;;;;5027603;28;20503;-76
2021/04/05 02:03:05;;;;;;;1.50;1.30;;;5.80;98.20;;;;;;5035179;28;20493;-76
2021/04/05 02:05:32;;;;;;;1.50;1.30;;;5.80;98.20;;;;;;5032663;28;20467;-76
2021/04/05 02:07:58;;;;;;;1.53;1.30;;;5.90;98.20;;;;;;5033110;28;20482;-76
2021/04/05 02:10:26;;;;;;;1.50;1.30;;;5.90;98.20;;;;;;5024751;28;20525;-76
2021/04/05 02:12:53;;;;;;;1.50;1.30;;;5.90;98.20;;;;;;5031491;28;20508;-76
2021/04/05 02:15:23;;;;;;;1.60;1.30;;;5.90;98.20;;;;;;5029450;28;20466;-76
2021/04/05 02:17:50;;;;;;;1.50;1.30;;;5.90;98.20;;;;;;5035008;28;20509;-77
2021/04/05 02:20:20;;;;;;;1.53;1.30;;;5.90;98.20;;;;;;5029622;28;20481;-76
2021/04/05 02:22:48;;;;;;;1.50;1.30;;;6.00;98.20;;;;;;5030869;28;20504;-76
2021/04/05 02:25:16;;;;;;;1.53;1.30;;;6.00;98.20;;;;;;5029674;28;20459;-76
2021/04/05 02:27:43;;;;;;;1.60;1.40;;;6.00;98.20;;;;;;5033541;28;20474;-76
2021/04/05 02:30:21;;;;;;;1.53;1.30;;;6.00;98.20;;;;;;5025768;28;20479;-77
2021/04/05 02:32:54;;;;;;;1.50;1.20;;;6.00;98.20;;;;;;5031288;28;21885;-76
2021/04/05 02:35:21;;;;;;;1.57;1.30;;;6.00;98.20;;;;;;5030476;28;20517;-76
2021/04/05 02:37:47;;;;;;;1.57;1.30;;;6.00;98.20;;;;;;5031701;28;21025;-76
2021/04/05 02:40:15;;;;;;;1.57;1.20;;;6.00;98.20;;;;;;5016909;28;20554;-76
2021/04/05 02:42:41;;;;;;;1.60;1.40;;;6.10;98.20;;;;;;5035995;28;20555;-76
2021/04/05 03:00:41;;;;;;;1.53;1.30;;;6.20;98.20;;;;;;1220489;22;21010;-74
2021/04/05 03:03:07;;;;;;;1.50;1.20;;;6.20;98.20;;;;;;4998468;28;21038;-78
2021/04/05 03:05:34;;;;;;;3.50;3.30;;;6.20;98.20;;;;;;5007777;28;20468;-76
2021/04/05 03:08:00;;;;;;;1.50;1.27;;;6.20;98.20;;;;;;4983298;28;20552;-75
2021/04/05 03:10:29;;;;;;;1.50;1.20;;;6.20;98.20;;;;;;5000033;28;20785;-79
2021/04/05 03:12:58;;;;;;;1.50;1.30;;;6.20;98.20;;;;;;4971899;28;20551;-76
2021/04/05 03:15:26;;;;;;;1.60;1.30;;;6.20;98.20;;;;;;4987533;28;20463;-77
2021/04/05 03:17:59;;;;;;;1.50;1.30;;;6.20;98.20;;;;;;4973184;28;20480;-77
2021/04/05 03:20:28;;;;;;;1.60;1.30;;;6.20;98.20;;;;;;4979245;28;20461;-76
2021/04/05 03:22:55;;;;;;;1.50;1.20;;;6.20;98.20;;;;;;4975730;28;20540;-76
2021/04/05 03:25:22;;;;;;;1.57;1.30;;;6.20;98.20;;;;;;4992647;28;20469;-76
2021/04/05 03:27:50;;;;;;;1.50;1.27;;;6.20;98.20;;;;;;4972231;28;20481;-77
2021/04/05 03:30:21;;;;;;;1.50;1.30;;;6.20;98.20;;;;;;4986006;28;20485;-77
2021/04/05 03:32:53;;;;;;;1.50;1.30;;;6.20;98.20;;;;;;4968729;28;20486;-78
2021/04/05 03:35:23;;;;;;;1.60;1.40;;;6.20;98.20;;;;;;4986890;28;20465;-76
2021/04/05 03:37:49;;;;;;;1.50;1.30;;;6.20;98.20;;;;;;4968355;28;20481;-76
2021/04/05 03:40:16;;;;;;;1.50;1.30;;;6.20;98.20;;;;;;4986741;28;20857;-75
2021/04/05 03:42:46;;;;;;;1.60;1.43;;;6.20;98.20;;;;;;4978260;28;20491;-76
2021/04/05 03:45:28;;;;;;;1.50;1.20;;;6.20;98.20;;;;;;4986859;28;20470;-76
2021/04/05 03:48:04;;;;;;;1.50;1.30;;;6.20;98.20;;;;;;4975061;28;20484;-77
2021/04/05 03:50:34;;;;;;;1.50;1.30;;;6.20;98.20;;;;;;4987125;28;20492;-77
2021/04/05 03:53:15;;;;;;;1.50;1.23;;;6.30;98.20;;;;;;4977935;28;20571;-77
2021/04/05 03:55:41;;;;;;;1.50;1.30;;;6.30;98.20;;;;;;4985523;28;20476;-77
2021/04/05 03:58:09;;;;;;;1.50;1.30;;;6.40;98.20;;;;;;4975855;28;20512;-76
2021/04/05 04:00:37;;;;;;;1.57;1.30;;;6.40;98.20;;;;;;4988553;28;20515;-77
2021/04/05 04:03:07;;;;;;;5.33;4.93;;;6.50;98.20;;;;;;4978183;28;20930;-76
2021/04/05 04:05:38;;;;;;;1.60;1.40;;;6.50;98.20;;;;;;4985072;28;20496;-77
2021/04/05 04:08:12;;;;;;;1.53;1.30;;;6.50;98.20;;;;;;4978744;28;21023;-76
2021/04/05 04:10:39;;;;;;;1.50;1.30;;;6.60;98.20;;;;;;4993561;28;21061;-77
2021/04/05 04:13:11;;;;;;;1.60;1.33;;;6.60;98.20;;;;;;4978426;28;20501;-76
2021/04/05 04:15:38;;;;;;;1.57;1.27;;;6.70;98.20;;;;;;4993243;28;20461;-76
2021/04/05 04:18:06;;;;;;;1.53;1.30;;;6.70;98.10;;;;;;4967379;28;20475;-77
2021/04/05 04:20:33;;;;;;;1.50;1.20;;;6.70;98.10;;;;;;4984783;28;21039;-76
2021/04/05 04:23:00;;;;;;;1.57;1.30;;;6.70;98.10;;;;;;4981787;28;20478;-76
2021/04/05 04:25:27;;;;;;;1.50;1.20;;;6.70;98.20;;;;;;4993318;28;20528;-76
2021/04/05 04:27:53;;;;;;;1.53;1.30;;;6.70;98.20;;;;;;4980305;28;20527;-76
2021/04/05 04:30:31;;;;;;;1.50;1.30;;;6.70;98.20;;;;;;4987646;28;20574;-76
2021/04/05 04:32:59;;;;;;;1.50;1.20;;;6.70;98.20;;;;;;4977164;28;20485;-76
2021/04/05 04:35:27;;;;;;;1.57;1.20;;;6.70;98.20;;;;;;4990457;28;20472;-76
2021/04/05 04:37:53;;;;;;;2.57;2.37;;;6.70;98.20;;;;;;4975423;28;21028;-76
2021/04/05 04:40:24;;;;;;;1.60;1.50;;;6.70;98.20;;;;;;4991666;28;20879;-77
2021/04/05 04:42:51;;;;;;;1.50;1.20;;;6.70;98.20;;;;;;4976469;28;20489;-76
2021/04/05 04:45:18;;;;;;;1.50;1.30;;;6.70;98.20;;;;;;4993775;28;20461;-76
2021/04/05 04:47:45;;;;;;;1.50;1.23;;;6.70;98.20;;;;;;4981963;28;20489;-77
2021/04/05 04:50:15;;;;;;;1.50;1.20;;;6.70;98.20;;;;;;4994396;28;20493;-77
2021/04/05 04:52:43;;;;;;;1.50;1.30;;;6.70;98.20;;;;;;4984856;28;20495;-77
2021/04/05 04:55:11;;;;;;;1.53;1.30;;;6.70;98.20;;;;;;4994754;28;20469;-76
2021/04/05 04:57:37;;;;;;;1.50;1.30;;;6.70;98.20;;;;;;4963955;28;20966;-77
2021/04/05 05:00:05;;;;;;;1.50;1.30;;;6.70;98.20;;;;;;4990923;28;20479;-78
2021/04/05 05:02:32;;;;;;;1.50;1.20;;;6.70;98.20;;;;;;4981315;28;20497;-76
2021/04/05 05:05:00;;;;;;;1.50;1.30;;;6.70;98.20;;;;;;4995428;28;20477;-76
2021/04/05 05:07:27;;;;;;;1.57;1.30;;;6.70;98.20;;;;;;4976278;28;20484;-75
2021/04/05 05:09:55;;;;;;;1.50;1.30;;;6.70;98.20;;;;;;4986801;28;20879;-76
2021/04/05 05:12:22;;;;;;;1.57;1.30;;;6.70;98.20;;;;;;4984305;28;20507;-76
2021/04/05 05:14:52;;;;;;;1.53;1.20;;;6.70;98.20;;;;;;4991327;28;20852;-75
2021/04/05 05:17:19;;;;;;;1.50;1.20;;;6.80;98.20;;;;;;4973823;28;20568;-78
2021/04/05 05:19:46;;;;;;;1.57;1.40;;;6.80;98.20;;;;;;4988159;28;20911;-77
2021/04/05 05:22:15;;;;;;;1.57;1.30;;;6.80;98.20;;;;;;4982192;28;20851;-76
2021/04/05 05:24:44;;;;;;;1.53;1.30;;;6.80;98.20;;;;;;4990798;28;21114;-76
2021/04/05 05:27:12;;;;;;;1.50;1.30;;;6.80;98.20;;;;;;4977400;28;20481;-76
2021/04/05 05:29:40;;;;;;;1.50;1.20;;;6.80;98.20;;;;;;4993069;28;20576;-76
2021/04/05 05:32:07;;;;;;;1.53;1.30;;;6.80;98.20;;;;;;4980379;28;20492;-75
2021/04/05 05:34:34;;;;;;;1.50;1.20;;;6.80;98.20;;;;;;4989314;28;20505;-76
2021/04/05 05:37:01;;;;;;;1.50;1.20;;;6.80;98.20;;;;;;4968210;28;20914;-76
2021/04/05 05:39:28;;;;;;;1.50;1.20;;;6.80;98.20;;;;;;4985539;28;20488;-76
2021/04/05 05:42:10;;;;;;;1.50;1.20;;;6.80;98.20;;;;;;4979237;28;20528;-76
2021/04/05 05:44:46;;;;;;;1.53;1.20;;;6.80;98.20;;;;;;4991882;28;21155;-76
2021/04/05 05:47:25;;;;;;;1.53;1.20;;;6.80;98.20;;;;;;4975422;28;20553;-77
2021/04/05 05:50:04;;;;;;;1.53;1.20;;;6.80;98.20;;;;;;4991520;28;20485;-76
2021/04/05 05:52:44;;;;;;;1.60;1.30;;;6.80;98.20;;;;;;4980684;28;20492;-76
2021/04/05 05:55:39;;;;;;;1.50;1.20;;;6.90;98.20;;;;;;4987591;28;20479;-76
2021/04/05 05:58:12;;;;;;;1.50;1.20;;;6.90;98.20;;;;;;4981317;28;20866;-76
2021/04/05 06:00:44;;;;;;;1.50;1.20;;;6.90;98.20;;;;;;4992986;28;20477;-76
2021/04/05 06:03:30;;;;;;;1.50;1.20;;;6.90;98.20;;;;;;4956628;28;20814;-75
2021/04/05 06:06:03;;;;;;;1.60;1.30;;;6.90;98.20;;;;;;4978016;28;20643;-76
2021/04/05 06:08:39;;;;;;;1.50;1.20;;;6.90;98.20;;;;;;4990753;28;20471;-77
2021/04/05 06:11:19;;;;;;;1.53;1.30;;;6.90;98.20;;;;;;4973661;28;20524;-77
2021/04/05 06:13:59;;;;;;;1.50;1.20;;;6.90;98.20;;;;;;4986216;28;20465;-77
2021/04/05 06:16:37;;;;;;;1.53;1.27;;;6.90;98.20;;;;;;4978571;28;21253;-77
2021/04/05 06:19:18;;;;;;;1.50;1.20;;;6.90;98.20;;;;;;4984334;28;20480;-76
2021/04/05 06:21:55;;;;;;;1.50;1.27;;;6.90;98.20;;;;;;4980823;28;20480;-76
2021/04/05 06:24:28;;;;;;;1.50;1.30;;;6.90;98.20;;;;;;4992049;28;20498;-76
2021/04/05 06:26:58;;;;;;;1.60;1.30;;;7.00;98.20;;;;;;4968460;28;20482;-76
2021/04/05 06:29:33;;;;;;;1.57;1.30;;;7.00;98.20;;;;;;4981607;28;20485;-75
2021/04/05 06:32:25;;;;;;;1.60;1.30;;;7.00;98.20;;;;;;4964480;28;20491;-75
2021/04/05 06:35:20;;;;;;;1.50;1.20;;;7.00;98.20;;;;;;4982025;28;20638;-76
2021/04/05 06:37:52;;;;;;;1.53;1.20;;;7.00;98.20;;;;;;4973553;28;20919;-75
2021/04/05 06:40:22;;;;;;;1.50;1.30;;;7.00;98.20;;;;;;4989532;28;20457;-75
2021/04/05 06:43:13;;;;;;;1.50;1.20;;;7.00;98.20;;;;;;4975119;28;20539;-76
2021/04/05 06:46:04;;;;;;;2.80;2.60;;;7.00;98.20;;;;;;4987359;28;20477;-75
2021/04/05 06:49:04;;;;;;;1.50;1.30;;;7.00;98.20;;;;;;4956297;28;20496;-76
2021/04/05 06:52:07;;;;;;;1.57;1.30;;;7.00;98.20;;;;;;4980238;28;20488;-76
2021/04/05 06:54:51;;;;;;;1.53;1.30;;;7.00;98.20;;;;;;4918832;28;20522;-76
2021/04/05 06:57:26;;;;;;;1.60;1.30;;;7.10;98.20;;;;;;4980815;28;20524;-77
2021/04/05 07:00:03;;;;;;;1.50;1.20;;;7.10;98.20;;;;;;4989058;28;20460;-76
2021/04/05 07:03:07;;;;;;;1.50;1.20;;;7.10;98.20;;;;;;4973494;28;20492;-76
2021/04/05 07:05:54;;;;;;;1.50;1.20;;;7.10;98.20;;;;;;4986331;28;20468;-77
2021/04/05 07:08:28;;;;;;;1.53;1.20;;;7.10;98.20;;;;;;4959404;28;20604;-76
2021/04/05 07:11:09;;;;;;;1.50;1.30;;;7.10;98.20;;;;;;4966088;28;20493;-76
2021/04/05 07:13:47;;;;;;;1.50;1.20;;;7.10;98.20;;;;;;4987255;28;20471;-76
2021/04/05 07:16:23;;;;;;;1.50;1.20;;;7.10;98.20;;;;;;4976810;28;21014;-76
2021/04/05 07:18:56;;;;;;;1.50;1.20;;;7.20;98.20;;;;;;4984135;28;20469;-76
2021/04/05 07:21:39;;;;;;;1.57;1.20;;;7.20;98.20;;;;;;4973137;28;20502;-76
2021/04/05 07:24:26;;;;;;;1.50;1.20;;;7.20;98.20;;;;;;4984078;28;20476;-76
2021/04/05 07:27:01;;;;;;;1.50;1.20;;;7.20;98.20;;;;;;4969120;28;21055;-76
2021/04/05 07:29:36;;;;;;;1.50;1.20;;;7.30;98.20;;;;;;4986432;28;20551;-76
2021/04/05 07:32:05;;;;;;;1.93;1.73;;;7.30;98.20;;;;;;4975204;28;20500;-75
2021/04/05 07:34:54;;;;;;;1.50;1.13;;;7.30;98.20;;;;;;4992280;28;20893;-75
2021/04/05 07:37:32;;;;;;;1.53;1.20;;;7.40;98.20;;;;;;4974261;28;20485;-76
2021/04/05 07:40:12;;;;;;;1.50;1.23;;;7.40;98.20;;;;;;4981145;28;20472;-75
2021/04/05 07:42:46;;;;;;;1.50;1.20;;;7.40;98.20;;;;;;4979901;28;20485;-75
2021/04/05 07:45:21;;;;;;;1.57;1.20;;;7.50;98.20;;;;;;4989158;28;20460;-76
2021/04/05 07:47:55;;;;;;;1.50;1.27;;;7.50;98.20;;;;;;4972211;28;20575;-75
2021/04/05 07:50:28;;;;;;;1.50;1.20;;;7.60;98.20;;;;;;4982085;28;20485;-74
2021/04/05 07:52:59;;;;;;;1.50;1.20;;;7.60;98.20;;;;;;4977554;28;20789;-76
2021/04/05 07:55:27;;;;;;;1.57;1.20;;;7.60;98.20;;;;;;4981902;28;20971;-76
2021/04/05 07:58:12;;;;;;;1.57;1.20;;;7.60;98.20;;;;;;4977789;28;20488;-75
2021/04/05 08:00:47;;;;;;;1.50;1.20;;;7.60;98.20;;;;;;4987383;28;20495;-75
2021/04/05 08:03:26;;;;;;;1.50;1.20;;;7.60;98.20;;;;;;4956865;28;20894;-76
2021/04/05 08:05:58;;;;;;;1.60;1.43;;;7.60;98.20;;;;;;4976511;28;21007;-75
2021/04/05 08:08:41;;;;;;;1.50;1.20;;;7.60;98.20;;;;;;4978136;28;20845;-77
2021/04/05 08:11:41;;;;;;;1.50;1.20;;;7.60;98.20;;;;;;4981661;28;20482;-77
2021/04/05 08:14:20;;;;;;;1.53;1.23;;;7.60;98.20;;;;;;4963321;28;20460;-78
2021/04/05 08:16:53;;;;;;;1.50;1.20;;;7.50;98.20;;;;;;4979312;28;20482;-78
2021/04/05 08:19:23;;;;;;;1.50;1.20;;;7.30;98.20;;;;;;4982793;28;20769;-77
2021/04/05 08:21:56;;;;;;;1.50;1.20;;;7.10;98.20;;;;;;4964144;28;20494;-78
2021/04/05 08:24:32;;;;;;;1.53;1.20;;;7.00;98.20;;;;;;4980330;28;20811;-78
2021/04/05 08:27:05;;;;;;;1.50;1.20;;;6.90;98.20;;;;;;4968659;28;20520;-77
2021/04/05 08:29:39;;;;;;;1.60;1.20;;;6.80;98.20;;;;;;4984759;28;20489;-78
2021/04/05 08:32:24;;;;;;;1.60;1.30;;;6.70;98.20;;;;;;4981048;28;20527;-77
2021/04/05 08:35:05;;;;;;;1.50;1.20;;;6.50;98.20;;;;;;4994506;28;20466;-79
2021/04/05 08:37:44;;;;;;;1.50;1.20;;;6.40;98.20;;;;;;4975208;28;20488;-78
2021/04/05 08:40:15;;;;;;;1.60;1.40;;;6.40;98.20;;;;;;4983132;28;20523;-78
2021/04/05 08:42:55;;;;;;;1.53;1.20;;;6.30;98.20;;;;;;4974569;28;20922;-78
2021/04/05 08:45:22;;;;;;;1.53;1.27;;;6.30;98.20;;;;;;4989073;28;20807;-79
2021/04/05 08:47:53;;;;;;;1.60;1.40;;;6.20;98.20;;;;;;4981729;28;21027;-77
2021/04/05 08:50:24;;;;;;;1.60;1.40;;;6.10;98.20;;;;;;4978205;28;20489;-79
2021/04/05 08:52:53;;;;;;;1.57;1.30;;;6.20;98.20;;;;;;4965344;28;20470;-79
2021/04/05 08:55:25;;;;;;;1.53;1.20;;;6.20;98.20;;;;;;4981720;28;20463;-79
2021/04/05 08:57:56;;;;;;;1.57;1.40;;;6.20;98.20;;;;;;4975978;28;20477;-78
2021/04/05 09:00:24;;;;;;;1.60;1.40;;;6.20;98.20;;;;;;4992631;28;20739;-79
2021/04/05 09:02:53;;;;;;;1.57;1.30;;;6.20;98.20;;;;;;4986676;28;20504;-78
2021/04/05 09:05:22;;;;;;;1.57;1.27;;;6.20;98.20;;;;;;4992212;28;20475;-78
2021/04/05 09:08:02;;;;;;;1.50;1.20;;;6.20;98.20;;;;;;4978274;28;20504;-79
2021/04/05 09:10:33;;;;;;;1.50;1.20;;;6.10;98.20;;;;;;4994259;28;20496;-79
2021/04/05 09:13:11;;;;;;;1.53;1.20;;;6.10;98.20;;;;;;4974025;28;20480;-78
2021/04/05 09:16:16;;;;;;;1.50;1.20;;;6.20;98.20;;;;;;4986508;28;20480;-78
2021/04/05 09:18:56;;;;;;;1.83;1.73;;;6.20;98.20;;;;;;4965600;28;20476;-78
2021/04/05 09:21:38;;;;;;;1.50;1.20;;;6.20;98.20;;;;;;4978218;28;20485;-79
2021/04/05 09:24:31;;;;;;;1.60;1.30;;;6.20;98.20;;;;;;4987731;28;20456;-79
2021/04/05 09:27:34;;;;;;;1.50;1.20;;;6.20;98.20;;;;;;4982245;28;21022;-78
2021/04/05 09:30:28;;;;;;;1.50;1.20;;;6.10;98.20;;;;;;4980254;28;20861;-78
2021/04/05 09:33:19;;;;;;;1.50;1.27;;;6.00;98.20;;;;;;4975334;28;20488;-79
2021/04/05 09:36:02;;;;;;;1.60;1.30;;;5.70;98.20;;;;;;4994615;28;20534;-77
2021/04/05 09:38:56;;;;;;;1.50;1.30;;;5.50;98.20;;;;;;4963213;28;20475;-79
2021/04/05 09:41:40;;;;;;;1.50;1.30;;;5.30;98.20;;;;;;4983534;28;20480;-78
2021/04/05 09:44:35;;;;;;;1.60;1.30;;;5.20;98.20;;;;;;4983144;28;20967;-77
2021/04/05 09:47:28;;;;;;;1.57;1.30;;;5.10;98.20;;;;;;4976787;28;20485;-79
2021/04/05 09:50:11;;;;;;;1.50;1.30;;;5.10;98.20;;;;;;4991055;28;20528;-77
2021/04/05 09:53:13;;;;;;;1.60;1.33;;;5.00;98.20;;;;;;4981307;28;20492;-80
2021/04/05 09:55:44;;;;;;;1.50;1.30;;;4.90;98.20;;;;;;4992024;28;20464;-77
2021/04/05 09:58:18;;;;;;;1.50;1.20;;;4.80;98.20;;;;;;4965842;28;20504;-77
2021/04/05 10:00:51;;;;;;;1.50;1.27;;;4.70;98.20;;;;;;4989066;28;20484;-78
2021/04/05 10:03:20;;;;;;;1.57;1.30;;;4.70;98.20;;;;;;4965206;28;20499;-78
2021/04/05 10:05:48;;;;;;;1.50;1.40;;;4.60;98.20;;;;;;4991830;28;20472;-76
2021/04/05 10:08:16;;;;;;;1.60;1.40;;;4.60;98.20;;;;;;4990670;28;20897;-79
2021/04/05 10:10:45;;;;;;;1.50;1.30;;;4.60;98.20;;;;;;4990992;28;21044;-77
2021/04/05 10:13:12;;;;;;;1.50;1.30;;;4.50;98.20;;;;;;4965217;28;20576;-78
2021/04/05 10:15:43;;;;;;;1.53;1.30;;;4.50;98.20;;;;;;4987435;28;20472;-78
2021/04/05 10:18:12;;;;;;;2.43;2.23;;;4.40;98.20;;;;;;4982233;28;20493;-77
2021/04/05 10:20:41;;;;;;;1.60;1.40;;;4.50;98.20;;;;;;4993076;28;20984;-79
2021/04/05 10:23:10;;;;;;;1.60;1.30;;;4.60;98.20;;;;;;4980720;28;20489;-77
2021/04/05 10:25:37;;;;;;;1.50;1.30;;;4.60;98.20;;;;;;4988101;28;20474;-78
2021/04/05 10:28:08;;;;;;;1.50;1.30;;;4.60;98.20;;;;;;4982793;28;20519;-77
2021/04/05 10:30:44;;;;;;;1.60;1.33;;;4.60;98.20;;;;;;4994628;28;20503;-77
2021/04/05 10:33:15;;;;;;;1.50;1.30;;;4.60;98.20;;;;;;4978397;28;20504;-77
2021/04/05 10:35:48;;;;;;;1.53;1.30;;;4.50;98.20;;;;;;4982740;28;20473;-77
2021/04/05 10:41:18;;;;;;;1.50;1.30;;;4.60;98.20;;;;;;4971269;28;21174;-75
2021/04/05 10:44:11;;;;;;;1.53;1.30;;;4.70;98.20;;;;;;4982201;28;20499;-77
2021/04/05 10:47:20;;;;;;;1.50;1.30;;;4.80;98.20;;;;;;4980224;28;20472;-77
2021/04/05 10:50:14;;;;;;;1.50;1.20;;;5.00;98.20;;;;;;4989669;28;20496;-74
2021/04/05 10:52:44;;;;;;;1.50;1.30;;;5.20;98.20;;;;;;4980604;28;20504;-75
2021/04/05 10:55:18;;;;;;;1.60;1.40;;;5.40;98.20;;;;;;4988634;28;20484;-75
2021/04/05 10:57:55;;;;;;;1.57;1.40;;;5.60;98.20;;;;;;4982226;28;20474;-75
2021/04/05 11:00:28;;;;;;;1.53;1.30;;;5.70;98.20;;;;;;4987998;28;20846;-75
2021/04/05 11:03:04;;;;;;;1.50;1.30;;;5.80;98.20;;;;;;4973466;28;20871;-74
2021/04/05 11:05:34;;;;;;;1.50;1.40;;;5.80;98.20;;;;;;5002721;28;20518;-75
2021/04/05 11:08:03;;;;;;;1.60;1.47;;;5.90;98.20;;;;;;4974500;28;20527;-75
2021/04/05 11:10:34;;;;;;;1.53;1.27;;;6.00;98.20;;;;;;4988999;28;20566;-74
2021/04/05 11:13:12;;;;;;;1.53;1.23;;;6.00;98.10;;;;;;4976939;28;20482;-74
2021/04/05 11:16:10;;;;;;;1.53;1.20;;;6.00;97.80;;;;;;4989532;28;21047;-74
2021/04/05 11:18:45;;;;;;;1.50;1.20;;;5.80;98.20;;;;;;4957099;28;20549;-79
2021/04/05 11:21:11;;;;;;;1.53;1.30;;;5.50;97.90;;;;;;4980511;28;20480;-77
2021/04/05 11:23:42;;;;;;;1.60;1.30;;;4.90;98.20;;;;;;4979499;28;20479;-74
2021/04/05 11:26:14;;;;;;;1.53;1.30;;;4.50;98.20;;;;;;4972497;28;20942;-76
2021/04/05 11:28:42;;;;;;;1.57;1.30;;;4.20;98.20;;;;;;4978263;28;20484;-75
2021/04/05 11:31:34;;;;;;;1.60;1.40;;;3.90;98.20;;;;;;4978811;28;20542;-75
2021/04/05 11:34:34;;;;;;;1.60;1.40;;;3.80;98.20;;;;;;4977165;28;21001;-75
2021/04/05 11:37:03;;;;;;;1.50;1.30;;;3.80;98.20;;;;;;4958225;28;20489;-75
2021/04/05 11:39:35;;;;;;;1.60;1.30;;;3.90;98.20;;;;;;4982662;28;20520;-76
2021/04/05 11:42:09;;;;;;;1.60;1.40;;;4.20;98.20;;;;;;4976588;28;20488;-79
2021/04/05 11:44:47;;;;;;;1.50;1.20;;;4.50;98.20;;;;;;4980472;28;20469;-77
2021/04/05 11:47:15;;;;;;;1.50;1.20;;;4.80;98.20;;;;;;4976763;28;21163;-74
2021/04/05 11:49:59;;;;;;;1.60;1.30;;;5.00;98.20;;;;;;4989506;28;20899;-76
2021/04/05 11:52:37;;;;;;;1.50;1.20;;;5.30;98.20;;;;;;4963431;28;21117;-75
2021/04/05 11:55:11;;;;;;;1.60;1.30;;;5.60;98.20;;;;;;4985875;28;20475;-78
2021/04/05 11:57:45;;;;;;;1.50;1.20;;;5.90;98.20;;;;;;4975733;28;20475;-78
2021/04/05 12:00:18;;;;;;;1.57;1.20;;;6.00;97.50;;;;;;4991222;28;21143;-76
2021/04/05 12:02:50;;;;;;;1.60;1.50;;;6.30;98.00;;;;;;4968041;28;20477;-77
2021/04/05 12:05:25;;;;;;;1.53;1.20;;;6.40;96.50;;;;;;4987450;28;20475;-76
2021/04/05 12:08:06;;;;;;;1.57;1.27;;;6.50;92.80;;;;;;4979907;28;20491;-77
2021/04/05 12:10:35;;;;;;;1.60;1.30;;;6.50;93.20;;;;;;4980861;28;20488;-74
2021/04/05 12:13:07;;;;;;;1.50;1.20;;;6.50;90.70;;;;;;4976358;28;20550;-77
2021/04/05 12:15:35;;;;;;;1.57;1.20;;;6.50;92.30;;;;;;4990354;28;20872;-75
2021/04/05 12:18:02;;;;;;;1.53;1.20;;;6.50;91.00;;;;;;4969525;28;21352;-75
2021/04/05 12:20:32;;;;;;;1.50;1.20;;;6.40;90.80;;;;;;4986358;28;20477;-74
2021/04/05 12:23:02;;;;;;;1.57;1.30;;;6.20;91.50;;;;;;4976359;28;20486;-77
2021/04/05 12:25:34;;;;;;;1.53;1.20;;;5.90;92.50;;;;;;4990732;28;20469;-77
2021/04/05 12:28:05;;;;;;;1.50;1.30;;;5.60;93.30;;;;;;4977441;28;20494;-76
2021/04/05 12:30:36;;;;;;;1.60;1.40;;;5.40;92.30;;;;;;4995103;28;20535;-76
2021/04/05 12:33:04;;;;;;;1.50;1.20;;;5.10;93.20;;;;;;4978648;28;20511;-77
2021/04/05 12:35:33;;;;;;;1.50;1.20;;;4.90;94.50;;;;;;4991456;28;20481;-78
2021/04/05 12:38:08;;;;;;;1.50;1.30;;;4.70;95.20;;;;;;4974092;28;20528;-74
2021/04/05 12:40:39;;;;;;;1.50;1.20;;;4.40;96.30;;;;;;4989802;28;20705;-74
2021/04/05 12:43:09;;;;;;;1.57;1.40;;;4.20;97.50;;;;;;4973060;28;20502;-75
2021/04/05 12:45:38;;;;;;;1.60;1.30;;;4.00;97.40;;;;;;4990816;28;20941;-77
2021/04/05 12:48:07;;;;;;;1.60;1.30;;;4.00;98.20;;;;;;4976569;28;20495;-74
2021/04/05 12:50:37;;;;;;;1.53;1.30;;;4.20;98.20;;;;;;4991845;28;20575;-75
2021/04/05 12:53:07;;;;;;;1.50;1.30;;;4.50;98.20;;;;;;4971880;28;20486;-79
2021/04/05 12:55:39;;;;;;;1.50;1.20;;;4.90;97.20;;;;;;4989423;28;20906;-76
2021/04/05 12:58:24;;;;;;;1.50;1.30;;;5.40;95.90;;;;;;4975903;28;20527;-75
2021/04/05 13:00:50;;;;;;;1.57;1.30;;;5.80;96.00;;;;;;4970430;28;20465;-75
2021/04/05 13:03:39;;;;;;;1.50;1.20;;;6.10;94.20;;;;;;4980999;28;20465;-75
2021/04/05 13:06:18;;;;;;;1.60;1.40;;;6.40;90.90;;;;;;4980020;28;20479;-76
2021/04/05 13:08:53;;;;;;;1.50;1.20;;;6.80;90.10;;;;;;4986669;28;20484;-77
2021/04/05 13:11:47;;;;;;;1.50;1.20;;;7.00;85.30;;;;;;4979430;28;20488;-75
2021/04/05 13:14:38;;;;;;;1.53;1.20;;;7.00;83.60;;;;;;4990723;28;20806;-75
2021/04/05 13:20:50;;;;;;;1.57;1.20;;;6.00;87.50;;;;;;4947039;28;20485;-76
2021/04/05 13:23:26;;;;;;;1.50;1.20;;;5.40;91.40;;;;;;4970522;28;20468;-78
2021/04/05 13:26:11;;;;;;;1.50;1.20;;;4.80;93.50;;;;;;4977315;28;20471;-76
2021/04/05 13:29:17;;;;;;;1.50;1.27;;;4.40;96.70;;;;;;4990830;28;20477;-77
2021/04/05 13:31:57;;;;;;;1.50;1.30;;;4.10;98.10;;;;;;4980499;28;21015;-74
2021/04/05 13:34:27;;;;;;;1.53;1.30;;;4.10;98.20;;;;;;4983516;28;20572;-74
2021/04/05 13:40:02;;;;;;;1.50;1.23;;;4.10;98.20;;;;;;4994129;28;20546;-76
2021/04/05 13:42:48;;;;;;;1.53;1.30;;;4.30;97.60;;;;;;4969879;28;20486;-75
2021/04/05 13:49:34;;;;;;;1.53;1.20;;;5.20;95.80;;;;;;4955278;28;20586;-76
2021/04/05 13:59:19;;;;;;;1.50;1.20;;;6.50;87.10;;;;;;4931704;28;20994;-76
2021/04/05 14:05:58;;;;;;;1.50;1.20;;;6.90;84.50;;;;;;4800661;29;20474;-76
2021/04/05 14:08:28;;;;;;;1.50;1.10;;;7.20;83.50;;;;;;4780060;29;20550;-76
2021/04/05 14:14:00;;;;;;;1.53;1.20;;;7.40;83.40;;;;;;4887152;29;20939;-78